sensor_id;sensor_type;location;lat;lon;timestamp;temperature;humidity
12922;DHT22;6528;48.086;16.282;2023-11-21T00:01:34;23.00;70.90
12922;DHT22;6528;48.086;16.282;2023-11-21T00:04:01;23.10;71.00
12922;DHT22;6528;48.086;16.282;2023-11-21T00:06:28;23.00;71.00
12922;DHT22;6528;48.086;16.282;2023-11-21T00:08:57;23.10;71.20
12922;DHT22;6528;48.086;16.282;2023-11-21T00:11:24;23.10;71.20
12922;DHT22;6528;48.086;16.282;2023-11-21T00:13:52;23.10;71.10
12922;DHT22;6528;48.086;16.282;2023-11-21T00:16:19;23.10;71.20
12922;DHT22;6528;48.086;16.282;2023-11-21T00:18:47;23.10;71.20
12922;DHT22;6528;48.086;16.282;2023-11-21T00:21:14;23.10;71.30
12922;DHT22;6528;48.086;16.282;2023-11-21T00:23:42;23.00;71.20
12922;DHT22;6528;48.086;16.282;2023-11-21T00:26:10;23.10;71.50
12922;DHT22;6528;48.086;16.282;2023-11-21T00:28:37;23.10;71.50
12922;DHT22;6528;48.086;16.282;2023-11-21T00:31:05;23.10;71.60
12922;DHT22;6528;48.086;16.282;2023-11-21T00:33:32;23.10;71.50
12922;DHT22;6528;48.086;16.282;2023-11-21T00:36:00;23.10;71.50
12922;DHT22;6528;48.086;16.282;2023-11-21T00:38:28;23.00;71.50
12922;DHT22;6528;48.086;16.282;2023-11-21T00:40:55;23.00;71.30
12922;DHT22;6528;48.086;16.282;2023-11-21T00:43:23;23.00;71.30
12922;DHT22;6528;48.086;16.282;2023-11-21T00:45:51;23.00;71.30
12922;DHT22;6528;48.086;16.282;2023-11-21T00:48:19;23.00;71.20
12922;DHT22;6528;48.086;16.282;2023-11-21T00:50:46;23.00;71.20
12922;DHT22;6528;48.086;16.282;2023-11-21T00:53:14;23.00;71.20
12922;DHT22;6528;48.086;16.282;2023-11-21T00:55:41;23.00;71.10
12922;DHT22;6528;48.086;16.282;2023-11-21T00:58:09;23.00;71.10
12922;DHT22;6528;48.086;16.282;2023-11-21T01:00:37;23.00;71.00
12922;DHT22;6528;48.086;16.282;2023-11-21T01:03:06;23.00;71.00
12922;DHT22;6528;48.086;16.282;2023-11-21T01:05:35;23.00;71.00
12922;DHT22;6528;48.086;16.282;2023-11-21T01:08:02;23.00;70.90
12922;DHT22;6528;48.086;16.282;2023-11-21T01:10:30;23.00;70.90
12922;DHT22;6528;48.086;16.282;2023-11-21T01:12:57;23.00;70.90
12922;DHT22;6528;48.086;16.282;2023-11-21T01:15:25;23.00;70.90
12922;DHT22;6528;48.086;16.282;2023-11-21T01:17:53;22.90;70.70
12922;DHT22;6528;48.086;16.282;2023-11-21T01:20:20;23.00;70.90
12922;DHT22;6528;48.086;16.282;2023-11-21T01:22:48;22.90;70.70
12922;DHT22;6528;48.086;16.282;2023-11-21T01:25:16;22.90;70.70
12922;DHT22;6528;48.086;16.282;2023-11-21T01:27:43;22.90;70.60
12922;DHT22;6528;48.086;16.282;2023-11-21T01:30:11;22.90;70.60
12922;DHT22;6528;48.086;16.282;2023-11-21T01:32:39;22.90;70.60
12922;DHT22;6528;48.086;16.282;2023-11-21T01:35:07;22.90;70.70
12922;DHT22;6528;48.086;16.282;2023-11-21T01:37:36;22.90;70.60
12922;DHT22;6528;48.086;16.282;2023-11-21T01:40:05;22.90;70.70
12922;DHT22;6528;48.086;16.282;2023-11-21T01:42:42;22.90;70.80
12922;DHT22;6528;48.086;16.282;2023-11-21T01:45:11;22.90;70.80
12922;DHT22;6528;48.086;16.282;2023-11-21T01:47:41;22.90;70.90
12922;DHT22;6528;48.086;16.282;2023-11-21T01:50:13;22.90;70.90
12922;DHT22;6528;48.086;16.282;2023-11-21T01:52:45;22.90;70.90
12922;DHT22;6528;48.086;16.282;2023-11-21T01:55:15;22.90;71.80
12922;DHT22;6528;48.086;16.282;2023-11-21T01:57:55;22.90;71.10
12922;DHT22;6528;48.086;16.282;2023-11-21T02:00:24;22.90;71.10
12922;DHT22;6528;48.086;16.282;2023-11-21T02:02:52;22.90;71.20
12922;DHT22;6528;48.086;16.282;2023-11-21T02:05:20;22.90;71.30
12922;DHT22;6528;48.086;16.282;2023-11-21T02:07:48;22.90;71.40
12922;DHT22;6528;48.086;16.282;2023-11-21T02:10:16;22.90;71.50
12922;DHT22;6528;48.086;16.282;2023-11-21T02:12:44;22.90;71.50
12922;DHT22;6528;48.086;16.282;2023-11-21T02:15:13;22.90;71.50
12922;DHT22;6528;48.086;16.282;2023-11-21T02:17:48;22.90;71.60
12922;DHT22;6528;48.086;16.282;2023-11-21T02:20:20;22.90;71.60
12922;DHT22;6528;48.086;16.282;2023-11-21T02:22:53;22.90;71.70
12922;DHT22;6528;48.086;16.282;2023-11-21T02:25:26;22.90;71.60
12922;DHT22;6528;48.086;16.282;2023-11-21T02:27:56;22.90;71.60
12922;DHT22;6528;48.086;16.282;2023-11-21T02:30:24;22.90;71.60
12922;DHT22;6528;48.086;16.282;2023-11-21T02:33:01;22.90;71.50
12922;DHT22;6528;48.086;16.282;2023-11-21T02:35:29;22.90;71.50
12922;DHT22;6528;48.086;16.282;2023-11-21T02:37:59;22.90;71.50
12922;DHT22;6528;48.086;16.282;2023-11-21T02:40:27;22.90;71.50
12922;DHT22;6528;48.086;16.282;2023-11-21T02:42:54;22.90;71.40
12922;DHT22;6528;48.086;16.282;2023-11-21T02:45:22;22.90;71.50
12922;DHT22;6528;48.086;16.282;2023-11-21T02:47:51;22.90;71.50
12922;DHT22;6528;48.086;16.282;2023-11-21T02:50:21;22.90;71.50
12922;DHT22;6528;48.086;16.282;2023-11-21T02:52:50;22.90;71.50
12922;DHT22;6528;48.086;16.282;2023-11-21T02:55:18;22.90;71.50
12922;DHT22;6528;48.086;16.282;2023-11-21T02:57:45;22.90;71.40
12922;DHT22;6528;48.086;16.282;2023-11-21T03:00:13;22.90;71.30
12922;DHT22;6528;48.086;16.282;2023-11-21T03:02:43;22.90;71.30
12922;DHT22;6528;48.086;16.282;2023-11-21T03:05:11;22.90;71.40
12922;DHT22;6528;48.086;16.282;2023-11-21T03:07:38;22.90;71.30
12922;DHT22;6528;48.086;16.282;2023-11-21T03:10:08;22.80;71.20
12922;DHT22;6528;48.086;16.282;2023-11-21T03:12:39;22.90;71.20
12922;DHT22;6528;48.086;16.282;2023-11-21T03:15:07;22.80;71.10
12922;DHT22;6528;48.086;16.282;2023-11-21T03:17:38;22.80;71.10
12922;DHT22;6528;48.086;16.282;2023-11-21T03:20:06;22.90;71.20
12922;DHT22;6528;48.086;16.282;2023-11-21T03:22:38;22.90;71.20
12922;DHT22;6528;48.086;16.282;2023-11-21T03:25:07;22.80;71.10
12922;DHT22;6528;48.086;16.282;2023-11-21T03:27:38;22.80;71.00
12922;DHT22;6528;48.086;16.282;2023-11-21T03:30:09;22.80;71.00
12922;DHT22;6528;48.086;16.282;2023-11-21T03:32:36;22.80;71.00
12922;DHT22;6528;48.086;16.282;2023-11-21T03:35:04;22.80;71.00
12922;DHT22;6528;48.086;16.282;2023-11-21T03:37:33;22.80;71.10
12922;DHT22;6528;48.086;16.282;2023-11-21T03:40:01;22.80;71.10
12922;DHT22;6528;48.086;16.282;2023-11-21T03:42:31;22.80;71.10
12922;DHT22;6528;48.086;16.282;2023-11-21T03:44:58;22.80;71.10
12922;DHT22;6528;48.086;16.282;2023-11-21T03:47:29;22.80;71.10
12922;DHT22;6528;48.086;16.282;2023-11-21T03:49:56;22.80;71.10
12922;DHT22;6528;48.086;16.282;2023-11-21T03:52:24;22.80;71.10
12922;DHT22;6528;48.086;16.282;2023-11-21T03:54:52;22.80;71.00
12922;DHT22;6528;48.086;16.282;2023-11-21T03:57:19;22.80;71.00
12922;DHT22;6528;48.086;16.282;2023-11-21T03:59:47;22.80;71.10
12922;DHT22;6528;48.086;16.282;2023-11-21T04:02:15;22.80;71.10
12922;DHT22;6528;48.086;16.282;2023-11-21T04:04:42;22.80;71.20
12922;DHT22;6528;48.086;16.282;2023-11-21T04:07:11;22.80;71.20
12922;DHT22;6528;48.086;16.282;2023-11-21T04:09:40;22.80;71.30
12922;DHT22;6528;48.086;16.282;2023-11-21T04:12:08;22.80;71.20
12922;DHT22;6528;48.086;16.282;2023-11-21T04:14:39;22.80;71.20
12922;DHT22;6528;48.086;16.282;2023-11-21T04:17:06;22.80;71.20
12922;DHT22;6528;48.086;16.282;2023-11-21T04:19:33;22.80;71.20
12922;DHT22;6528;48.086;16.282;2023-11-21T04:22:01;22.80;71.20
12922;DHT22;6528;48.086;16.282;2023-11-21T04:24:28;22.80;71.30
12922;DHT22;6528;48.086;16.282;2023-11-21T04:26:56;22.80;71.20
12922;DHT22;6528;48.086;16.282;2023-11-21T04:29:23;22.80;71.20
12922;DHT22;6528;48.086;16.282;2023-11-21T04:31:50;22.80;71.20
12922;DHT22;6528;48.086;16.282;2023-11-21T04:34:18;22.80;71.20
12922;DHT22;6528;48.086;16.282;2023-11-21T04:36:45;22.80;71.20
12922;DHT22;6528;48.086;16.282;2023-11-21T04:39:13;22.80;71.10
12922;DHT22;6528;48.086;16.282;2023-11-21T04:41:40;22.80;71.10
12922;DHT22;6528;48.086;16.282;2023-11-21T04:44:07;22.80;71.10
12922;DHT22;6528;48.086;16.282;2023-11-21T04:46:35;22.80;71.10
12922;DHT22;6528;48.086;16.282;2023-11-21T04:49:03;22.80;71.10
12922;DHT22;6528;48.086;16.282;2023-11-21T04:51:30;22.80;71.10
12922;DHT22;6528;48.086;16.282;2023-11-21T04:53:59;22.80;71.10
12922;DHT22;6528;48.086;16.282;2023-11-21T04:56:54;22.80;71.20
12922;DHT22;6528;48.086;16.282;2023-11-21T04:59:21;22.80;71.10
12922;DHT22;6528;48.086;16.282;2023-11-21T05:01:52;22.80;71.00
12922;DHT22;6528;48.086;16.282;2023-11-21T05:04:20;22.80;71.00
12922;DHT22;6528;48.086;16.282;2023-11-21T05:06:49;22.80;71.00
12922;DHT22;6528;48.086;16.282;2023-11-21T05:09:17;22.80;71.00
12922;DHT22;6528;48.086;16.282;2023-11-21T05:11:44;22.80;71.00
12922;DHT22;6528;48.086;16.282;2023-11-21T05:14:12;22.80;71.00
12922;DHT22;6528;48.086;16.282;2023-11-21T05:16:40;22.80;71.10
12922;DHT22;6528;48.086;16.282;2023-11-21T05:19:07;22.80;71.20
12922;DHT22;6528;48.086;16.282;2023-11-21T05:21:35;22.80;72.10
12922;DHT22;6528;48.086;16.282;2023-11-21T05:24:03;22.80;71.30
12922;DHT22;6528;48.086;16.282;2023-11-21T05:26:30;22.80;71.30
12922;DHT22;6528;48.086;16.282;2023-11-21T05:28:58;22.80;71.20
12922;DHT22;6528;48.086;16.282;2023-11-21T05:31:26;22.80;71.20
12922;DHT22;6528;48.086;16.282;2023-11-21T05:33:54;22.80;71.20
12922;DHT22;6528;48.086;16.282;2023-11-21T05:36:21;22.80;71.20
12922;DHT22;6528;48.086;16.282;2023-11-21T05:38:49;22.80;71.20
12922;DHT22;6528;48.086;16.282;2023-11-21T05:41:16;22.80;71.20
12922;DHT22;6528;48.086;16.282;2023-11-21T05:43:44;22.80;71.20
12922;DHT22;6528;48.086;16.282;2023-11-21T05:46:11;22.80;71.20
12922;DHT22;6528;48.086;16.282;2023-11-21T05:48:40;22.80;71.10
12922;DHT22;6528;48.086;16.282;2023-11-21T05:51:08;22.80;71.10
12922;DHT22;6528;48.086;16.282;2023-11-21T05:53:35;22.80;71.90
12922;DHT22;6528;48.086;16.282;2023-11-21T05:56:02;22.80;71.10
12922;DHT22;6528;48.086;16.282;2023-11-21T05:58:31;22.80;71.10
12922;DHT22;6528;48.086;16.282;2023-11-21T06:00:58;22.80;71.10
12922;DHT22;6528;48.086;16.282;2023-11-21T06:03:25;22.80;71.10
12922;DHT22;6528;48.086;16.282;2023-11-21T06:05:53;22.80;71.00
12922;DHT22;6528;48.086;16.282;2023-11-21T06:08:21;22.80;71.00
12922;DHT22;6528;48.086;16.282;2023-11-21T06:10:49;22.80;71.00
12922;DHT22;6528;48.086;16.282;2023-11-21T06:13:17;22.80;71.20
12922;DHT22;6528;48.086;16.282;2023-11-21T06:15:47;22.90;71.20
12922;DHT22;6528;48.086;16.282;2023-11-21T06:18:15;22.90;71.20
12922;DHT22;6528;48.086;16.282;2023-11-21T06:20:42;22.80;71.10
12922;DHT22;6528;48.086;16.282;2023-11-21T06:23:10;22.80;71.20
12922;DHT22;6528;48.086;16.282;2023-11-21T06:25:38;22.90;71.30
12922;DHT22;6528;48.086;16.282;2023-11-21T06:28:06;22.80;71.20
12922;DHT22;6528;48.086;16.282;2023-11-21T06:30:33;22.90;71.30
12922;DHT22;6528;48.086;16.282;2023-11-21T06:33:00;22.90;71.30
12922;DHT22;6528;48.086;16.282;2023-11-21T06:35:28;22.90;71.30
12922;DHT22;6528;48.086;16.282;2023-11-21T06:37:57;22.90;71.30
12922;DHT22;6528;48.086;16.282;2023-11-21T06:40:24;22.90;71.30
12922;DHT22;6528;48.086;16.282;2023-11-21T06:42:52;22.90;71.20
12922;DHT22;6528;48.086;16.282;2023-11-21T06:45:19;22.90;71.20
12922;DHT22;6528;48.086;16.282;2023-11-21T06:47:47;22.90;71.30
12922;DHT22;6528;48.086;16.282;2023-11-21T06:50:15;22.90;71.70
12922;DHT22;6528;48.086;16.282;2023-11-21T06:52:43;22.90;71.80
12922;DHT22;6528;48.086;16.282;2023-11-21T06:55:11;22.90;71.80
12922;DHT22;6528;48.086;16.282;2023-11-21T06:57:38;22.90;71.70
12922;DHT22;6528;48.086;16.282;2023-11-21T07:00:06;22.90;71.60
12922;DHT22;6528;48.086;16.282;2023-11-21T07:02:36;22.90;71.50
12922;DHT22;6528;48.086;16.282;2023-11-21T07:05:04;22.90;71.50
12922;DHT22;6528;48.086;16.282;2023-11-21T07:07:32;23.00;71.50
12922;DHT22;6528;48.086;16.282;2023-11-21T07:10:03;23.00;71.30
12922;DHT22;6528;48.086;16.282;2023-11-21T07:12:33;23.00;71.30
12922;DHT22;6528;48.086;16.282;2023-11-21T07:15:02;23.00;71.20
12922;DHT22;6528;48.086;16.282;2023-11-21T07:17:29;23.00;71.10
12922;DHT22;6528;48.086;16.282;2023-11-21T07:19:58;23.00;71.10
12922;DHT22;6528;48.086;16.282;2023-11-21T07:22:26;23.00;71.00
12922;DHT22;6528;48.086;16.282;2023-11-21T07:24:53;23.00;70.90
12922;DHT22;6528;48.086;16.282;2023-11-21T07:27:21;23.10;71.00
12922;DHT22;6528;48.086;16.282;2023-11-21T07:29:48;23.00;70.70
12922;DHT22;6528;48.086;16.282;2023-11-21T07:32:16;23.00;70.70
12922;DHT22;6528;48.086;16.282;2023-11-21T07:34:43;23.00;70.60
12922;DHT22;6528;48.086;16.282;2023-11-21T07:37:11;23.00;70.50
12922;DHT22;6528;48.086;16.282;2023-11-21T07:39:38;23.10;70.60
12922;DHT22;6528;48.086;16.282;2023-11-21T07:42:09;23.10;70.50
12922;DHT22;6528;48.086;16.282;2023-11-21T07:44:38;23.10;70.40
12922;DHT22;6528;48.086;16.282;2023-11-21T07:47:05;23.10;70.30
12922;DHT22;6528;48.086;16.282;2023-11-21T07:49:33;23.10;70.30
12922;DHT22;6528;48.086;16.282;2023-11-21T07:52:00;23.10;70.10
12922;DHT22;6528;48.086;16.282;2023-11-21T07:54:28;23.10;70.00
12922;DHT22;6528;48.086;16.282;2023-11-21T07:56:55;23.10;70.00
12922;DHT22;6528;48.086;16.282;2023-11-21T07:59:22;23.10;70.00
12922;DHT22;6528;48.086;16.282;2023-11-21T08:01:50;23.20;71.00
12922;DHT22;6528;48.086;16.282;2023-11-21T08:04:17;23.10;70.00
12922;DHT22;6528;48.086;16.282;2023-11-21T08:06:46;23.20;70.10
12922;DHT22;6528;48.086;16.282;2023-11-21T08:09:14;23.20;70.10
12922;DHT22;6528;48.086;16.282;2023-11-21T08:11:41;23.20;70.10
12922;DHT22;6528;48.086;16.282;2023-11-21T08:14:09;23.30;70.30
12922;DHT22;6528;48.086;16.282;2023-11-21T08:16:36;23.30;71.00
12922;DHT22;6528;48.086;16.282;2023-11-21T08:19:04;23.30;70.10
12922;DHT22;6528;48.086;16.282;2023-11-21T08:21:31;23.40;69.90
12922;DHT22;6528;48.086;16.282;2023-11-21T08:23:58;23.50;69.70
12922;DHT22;6528;48.086;16.282;2023-11-21T08:26:27;23.50;70.30
12922;DHT22;6528;48.086;16.282;2023-11-21T08:28:54;23.60;69.30
12922;DHT22;6528;48.086;16.282;2023-11-21T08:31:25;23.60;69.10
12922;DHT22;6528;48.086;16.282;2023-11-21T08:33:53;23.60;69.00
12922;DHT22;6528;48.086;16.282;2023-11-21T08:36:23;23.70;69.00
12922;DHT22;6528;48.086;16.282;2023-11-21T08:38:52;23.60;68.80
12922;DHT22;6528;48.086;16.282;2023-11-21T08:41:19;23.60;68.80
12922;DHT22;6528;48.086;16.282;2023-11-21T08:43:50;23.70;68.90
12922;DHT22;6528;48.086;16.282;2023-11-21T08:46:19;23.70;68.60
12922;DHT22;6528;48.086;16.282;2023-11-21T08:48:47;23.80;68.50
12922;DHT22;6528;48.086;16.282;2023-11-21T08:51:15;23.80;68.30
12922;DHT22;6528;48.086;16.282;2023-11-21T08:53:43;23.70;68.10
12922;DHT22;6528;48.086;16.282;2023-11-21T08:56:14;23.70;67.90
12922;DHT22;6528;48.086;16.282;2023-11-21T08:58:42;23.70;67.90
12922;DHT22;6528;48.086;16.282;2023-11-21T09:01:09;23.60;67.80
12922;DHT22;6528;48.086;16.282;2023-11-21T09:03:37;23.70;67.90
12922;DHT22;6528;48.086;16.282;2023-11-21T09:06:05;23.70;67.90
12922;DHT22;6528;48.086;16.282;2023-11-21T09:08:33;23.70;67.60
12922;DHT22;6528;48.086;16.282;2023-11-21T09:11:00;23.80;67.20
12922;DHT22;6528;48.086;16.282;2023-11-21T09:13:28;23.80;66.30
12922;DHT22;6528;48.086;16.282;2023-11-21T09:15:57;23.80;65.70
12922;DHT22;6528;48.086;16.282;2023-11-21T09:18:24;23.80;64.90
12922;DHT22;6528;48.086;16.282;2023-11-21T09:20:51;23.80;60.80
12922;DHT22;6528;48.086;16.282;2023-11-21T09:23:19;23.90;99.90
12922;DHT22;6528;48.086;16.282;2023-11-21T09:25:46;23.90;99.90
12922;DHT22;6528;48.086;16.282;2023-11-21T09:28:16;24.00;99.90
12922;DHT22;6528;48.086;16.282;2023-11-21T09:30:44;24.00;1.00
12922;DHT22;6528;48.086;16.282;2023-11-21T09:33:11;24.00;1.00
12922;DHT22;6528;48.086;16.282;2023-11-21T09:35:39;24.00;99.90
12922;DHT22;6528;48.086;16.282;2023-11-21T09:38:07;24.00;1.00
12922;DHT22;6528;48.086;16.282;2023-11-21T09:40:38;24.00;99.90
12922;DHT22;6528;48.086;16.282;2023-11-21T09:43:16;24.00;1.00
12922;DHT22;6528;48.086;16.282;2023-11-21T09:45:47;24.00;1.00
12922;DHT22;6528;48.086;16.282;2023-11-21T09:48:15;23.90;1.00
12922;DHT22;6528;48.086;16.282;2023-11-21T09:50:44;23.90;1.00
12922;DHT22;6528;48.086;16.282;2023-11-21T09:53:13;23.90;99.90
12922;DHT22;6528;48.086;16.282;2023-11-21T09:55:44;23.90;99.90
12922;DHT22;6528;48.086;16.282;2023-11-21T09:58:13;23.80;99.90
12922;DHT22;6528;48.086;16.282;2023-11-21T10:00:45;23.80;99.90
12922;DHT22;6528;48.086;16.282;2023-11-21T10:03:13;23.80;99.90
12922;DHT22;6528;48.086;16.282;2023-11-21T10:05:50;23.80;99.90
12922;DHT22;6528;48.086;16.282;2023-11-21T10:08:19;23.80;99.90
12922;DHT22;6528;48.086;16.282;2023-11-21T10:10:52;23.80;99.90
12922;DHT22;6528;48.086;16.282;2023-11-21T10:13:20;23.80;99.90
12922;DHT22;6528;48.086;16.282;2023-11-21T10:15:51;23.80;99.90
12922;DHT22;6528;48.086;16.282;2023-11-21T10:18:20;23.70;99.90
12922;DHT22;6528;48.086;16.282;2023-11-21T10:20:50;23.80;99.90
12922;DHT22;6528;48.086;16.282;2023-11-21T10:23:23;23.80;99.90
12922;DHT22;6528;48.086;16.282;2023-11-21T10:25:52;23.70;99.90
12922;DHT22;6528;48.086;16.282;2023-11-21T10:28:21;23.70;99.90
12922;DHT22;6528;48.086;16.282;2023-11-21T10:30:49;23.70;99.90
12922;DHT22;6528;48.086;16.282;2023-11-21T10:33:16;23.70;99.90
12922;DHT22;6528;48.086;16.282;2023-11-21T10:35:44;23.60;99.90
12922;DHT22;6528;48.086;16.282;2023-11-21T10:38:18;23.60;99.90
12922;DHT22;6528;48.086;16.282;2023-11-21T10:40:48;23.60;99.90
12922;DHT22;6528;48.086;16.282;2023-11-21T10:43:17;23.60;99.90
12922;DHT22;6528;48.086;16.282;2023-11-21T10:45:46;23.70;99.90
12922;DHT22;6528;48.086;16.282;2023-11-21T10:48:14;23.70;99.90
12922;DHT22;6528;48.086;16.282;2023-11-21T10:50:46;23.70;90.30
12922;DHT22;6528;48.086;16.282;2023-11-21T10:53:14;23.70;98.00
12922;DHT22;6528;48.086;16.282;2023-11-21T10:55:42;23.70;92.60
12922;DHT22;6528;48.086;16.282;2023-11-21T10:58:13;23.70;51.80
12922;DHT22;6528;48.086;16.282;2023-11-21T11:00:41;23.80;99.90
12922;DHT22;6528;48.086;16.282;2023-11-21T11:03:12;23.80;99.90
12922;DHT22;6528;48.086;16.282;2023-11-21T11:05:44;23.80;99.90
12922;DHT22;6528;48.086;16.282;2023-11-21T11:08:22;23.80;99.90
12922;DHT22;6528;48.086;16.282;2023-11-21T11:10:55;23.80;99.90
12922;DHT22;6528;48.086;16.282;2023-11-21T11:13:23;23.80;91.90
12922;DHT22;6528;48.086;16.282;2023-11-21T11:15:57;23.80;99.90
12922;DHT22;6528;48.086;16.282;2023-11-21T11:18:27;23.80;99.90
12922;DHT22;6528;48.086;16.282;2023-11-21T11:32:21;23.80;99.90
12922;DHT22;6528;48.086;16.282;2023-11-21T11:35:10;23.80;99.90
12922;DHT22;6528;48.086;16.282;2023-11-21T11:37:38;23.80;99.90
12922;DHT22;6528;48.086;16.282;2023-11-21T11:40:10;23.80;99.90
12922;DHT22;6528;48.086;16.282;2023-11-21T11:42:38;23.80;99.90
12922;DHT22;6528;48.086;16.282;2023-11-21T11:45:31;23.80;99.90
12922;DHT22;6528;48.086;16.282;2023-11-21T11:48:01;23.80;99.90
12922;DHT22;6528;48.086;16.282;2023-11-21T11:50:29;23.80;99.90
12922;DHT22;6528;48.086;16.282;2023-11-21T11:53:15;23.80;99.90
12922;DHT22;6528;48.086;16.282;2023-11-21T11:55:43;23.80;99.90
12922;DHT22;6528;48.086;16.282;2023-11-21T11:58:11;23.80;99.90
12922;DHT22;6528;48.086;16.282;2023-11-21T12:00:39;23.80;99.90
12922;DHT22;6528;48.086;16.282;2023-11-21T12:03:09;23.80;99.90
12922;DHT22;6528;48.086;16.282;2023-11-21T12:05:37;23.80;99.90
12922;DHT22;6528;48.086;16.282;2023-11-21T12:08:09;23.80;99.90
12922;DHT22;6528;48.086;16.282;2023-11-21T12:10:38;23.80;96.80
12922;DHT22;6528;48.086;16.282;2023-11-21T12:13:10;23.80;99.90
12922;DHT22;6528;48.086;16.282;2023-11-21T12:15:39;23.70;99.90
12922;DHT22;6528;48.086;16.282;2023-11-21T12:18:09;23.70;99.90
12922;DHT22;6528;48.086;16.282;2023-11-21T12:20:37;23.70;99.60
12922;DHT22;6528;48.086;16.282;2023-11-21T12:23:07;23.70;99.90
12922;DHT22;6528;48.086;16.282;2023-11-21T12:25:37;23.70;97.20
12922;DHT22;6528;48.086;16.282;2023-11-21T12:28:05;23.70;99.90
12922;DHT22;6528;48.086;16.282;2023-11-21T12:30:35;23.70;99.90
12922;DHT22;6528;48.086;16.282;2023-11-21T12:33:03;23.70;99.90
12922;DHT22;6528;48.086;16.282;2023-11-21T12:47:17;23.60;99.90
12922;DHT22;6528;48.086;16.282;2023-11-21T12:50:13;23.60;99.90
12922;DHT22;6528;48.086;16.282;2023-11-21T12:52:47;23.60;99.90
12922;DHT22;6528;48.086;16.282;2023-11-21T12:55:16;23.60;99.90
12922;DHT22;6528;48.086;16.282;2023-11-21T12:57:44;23.60;99.90
12922;DHT22;6528;48.086;16.282;2023-11-21T13:00:13;23.60;99.90
12922;DHT22;6528;48.086;16.282;2023-11-21T13:02:52;23.60;99.90
12922;DHT22;6528;48.086;16.282;2023-11-21T13:05:29;23.60;99.90
12922;DHT22;6528;48.086;16.282;2023-11-21T13:07:58;23.60;99.90
12922;DHT22;6528;48.086;16.282;2023-11-21T13:10:31;23.60;99.90
12922;DHT22;6528;48.086;16.282;2023-11-21T13:13:00;23.60;99.90
12922;DHT22;6528;48.086;16.282;2023-11-21T13:15:27;23.60;99.90
12922;DHT22;6528;48.086;16.282;2023-11-21T13:17:55;23.50;99.90
12922;DHT22;6528;48.086;16.282;2023-11-21T13:20:25;23.50;99.90
12922;DHT22;6528;48.086;16.282;2023-11-21T13:22:54;23.60;99.90
12922;DHT22;6528;48.086;16.282;2023-11-21T13:25:27;23.60;99.90
12922;DHT22;6528;48.086;16.282;2023-11-21T13:27:55;23.60;99.90
12922;DHT22;6528;48.086;16.282;2023-11-21T13:30:24;23.50;99.90
12922;DHT22;6528;48.086;16.282;2023-11-21T13:32:55;23.50;99.90
12922;DHT22;6528;48.086;16.282;2023-11-21T13:35:29;23.60;99.90
12922;DHT22;6528;48.086;16.282;2023-11-21T13:38:16;23.50;99.90
12922;DHT22;6528;48.086;16.282;2023-11-21T13:40:59;23.50;99.90
12922;DHT22;6528;48.086;16.282;2023-11-21T13:43:26;23.50;99.90
12922;DHT22;6528;48.086;16.282;2023-11-21T13:45:56;23.50;99.90
12922;DHT22;6528;48.086;16.282;2023-11-21T13:48:30;23.50;99.90
12922;DHT22;6528;48.086;16.282;2023-11-21T13:51:10;23.50;99.90
12922;DHT22;6528;48.086;16.282;2023-11-21T13:53:48;23.50;99.90
12922;DHT22;6528;48.086;16.282;2023-11-21T13:56:18;23.50;99.90
12922;DHT22;6528;48.086;16.282;2023-11-21T13:58:52;23.50;99.90
12922;DHT22;6528;48.086;16.282;2023-11-21T14:01:24;23.50;99.90
12922;DHT22;6528;48.086;16.282;2023-11-21T14:03:51;23.50;99.90
12922;DHT22;6528;48.086;16.282;2023-11-21T14:06:25;23.50;29.70
12922;DHT22;6528;48.086;16.282;2023-11-21T14:09:00;23.50;99.90
12922;DHT22;6528;48.086;16.282;2023-11-21T14:11:33;23.50;99.90
12922;DHT22;6528;48.086;16.282;2023-11-21T14:14:09;23.50;99.90
12922;DHT22;6528;48.086;16.282;2023-11-21T14:16:37;23.40;70.70
12922;DHT22;6528;48.086;16.282;2023-11-21T14:19:04;23.40;99.90
12922;DHT22;6528;48.086;16.282;2023-11-21T14:21:44;23.50;16.50
12922;DHT22;6528;48.086;16.282;2023-11-21T14:24:12;23.50;99.90
12922;DHT22;6528;48.086;16.282;2023-11-21T14:26:41;23.40;99.90
12922;DHT22;6528;48.086;16.282;2023-11-21T14:29:09;23.50;99.90
12922;DHT22;6528;48.086;16.282;2023-11-21T14:31:41;23.40;9.70
12922;DHT22;6528;48.086;16.282;2023-11-21T14:34:08;23.40;99.90
12922;DHT22;6528;48.086;16.282;2023-11-21T14:36:36;23.40;1.00
12922;DHT22;6528;48.086;16.282;2023-11-21T14:39:10;23.40;85.30
12922;DHT22;6528;48.086;16.282;2023-11-21T14:41:51;23.40;99.90
12922;DHT22;6528;48.086;16.282;2023-11-21T14:44:20;23.40;4.80
12922;DHT22;6528;48.086;16.282;2023-11-21T14:46:51;23.40;99.90
12922;DHT22;6528;48.086;16.282;2023-11-21T14:49:20;23.40;99.90
12922;DHT22;6528;48.086;16.282;2023-11-21T14:51:52;23.40;99.90
12922;DHT22;6528;48.086;16.282;2023-11-21T14:54:51;23.40;75.70
12922;DHT22;6528;48.086;16.282;2023-11-21T14:57:30;23.40;99.90
12922;DHT22;6528;48.086;16.282;2023-11-21T14:59:58;23.40;99.90
12922;DHT22;6528;48.086;16.282;2023-11-21T15:02:25;23.40;7.40
12922;DHT22;6528;48.086;16.282;2023-11-21T15:05:12;23.40;99.90
12922;DHT22;6528;48.086;16.282;2023-11-21T15:07:44;23.40;99.90
12922;DHT22;6528;48.086;16.282;2023-11-21T15:10:16;23.40;99.90
12922;DHT22;6528;48.086;16.282;2023-11-21T15:12:43;23.40;63.00
12922;DHT22;6528;48.086;16.282;2023-11-21T15:15:11;23.40;1.00
12922;DHT22;6528;48.086;16.282;2023-11-21T15:17:41;23.30;1.00
12922;DHT22;6528;48.086;16.282;2023-11-21T15:20:11;23.30;99.90
12922;DHT22;6528;48.086;16.282;2023-11-21T15:22:46;23.40;64.20
12922;DHT22;6528;48.086;16.282;2023-11-21T15:25:13;23.30;99.90
12922;DHT22;6528;48.086;16.282;2023-11-21T15:27:41;23.30;99.90
12922;DHT22;6528;48.086;16.282;2023-11-21T15:30:09;23.40;99.90
12922;DHT22;6528;48.086;16.282;2023-11-21T15:32:36;23.30;1.00
12922;DHT22;6528;48.086;16.282;2023-11-21T15:35:04;23.30;99.90
12922;DHT22;6528;48.086;16.282;2023-11-21T15:37:31;23.30;3.00
12922;DHT22;6528;48.086;16.282;2023-11-21T15:39:59;23.30;1.00
12922;DHT22;6528;48.086;16.282;2023-11-21T15:42:26;23.30;1.00
12922;DHT22;6528;48.086;16.282;2023-11-21T15:44:54;23.30;94.50
12922;DHT22;6528;48.086;16.282;2023-11-21T15:47:21;23.30;10.30
12922;DHT22;6528;48.086;16.282;2023-11-21T15:49:49;23.30;99.90
12922;DHT22;6528;48.086;16.282;2023-11-21T15:52:17;23.30;11.00
12922;DHT22;6528;48.086;16.282;2023-11-21T15:54:46;23.30;54.60
12922;DHT22;6528;48.086;16.282;2023-11-21T15:57:13;23.30;1.00
12922;DHT22;6528;48.086;16.282;2023-11-21T15:59:41;23.30;99.90
12922;DHT22;6528;48.086;16.282;2023-11-21T16:02:10;23.30;1.00
12922;DHT22;6528;48.086;16.282;2023-11-21T16:04:39;23.30;37.50
12922;DHT22;6528;48.086;16.282;2023-11-21T16:07:11;23.30;50.40
12922;DHT22;6528;48.086;16.282;2023-11-21T16:09:39;23.30;1.00